sensor_id;sensor_type;location;lat;lon;timestamp;P1;durP1;ratioP1;P2;durP2;ratioP2
29414;SDS011;20303;48.302;11.914;2023-03-23T00:05:42;4.05;;;2.40;;
29414;SDS011;20303;48.302;11.914;2023-03-23T00:15:49;3.70;;;2.28;;
29414;SDS011;20303;48.302;11.914;2023-03-23T00:25:53;3.35;;;2.22;;
29414;SDS011;20303;48.302;11.914;2023-03-23T00:35:56;3.65;;;2.13;;
29414;SDS011;20303;48.302;11.914;2023-03-23T00:45:57;3.65;;;2.30;;
29414;SDS011;20303;48.302;11.914;2023-03-23T00:56:00;3.38;;;2.20;;
29414;SDS011;20303;48.302;11.914;2023-03-23T01:06:06;4.00;;;2.22;;
29414;SDS011;20303;48.302;11.914;2023-03-23T01:16:08;4.25;;;2.38;;
29414;SDS011;20303;48.302;11.914;2023-03-23T01:26:11;3.75;;;2.08;;
29414;SDS011;20303;48.302;11.914;2023-03-23T01:36:15;3.40;;;2.10;;
29414;SDS011;20303;48.302;11.914;2023-03-23T01:46:17;3.13;;;2.15;;
29414;SDS011;20303;48.302;11.914;2023-03-23T01:56:20;2.75;;;1.80;;
29414;SDS011;20303;48.302;11.914;2023-03-23T02:06:24;2.50;;;1.80;;
29414;SDS011;20303;48.302;11.914;2023-03-23T02:16:44;2.90;;;1.80;;
29414;SDS011;20303;48.302;11.914;2023-03-23T02:37:11;2.47;;;1.70;;
29414;SDS011;20303;48.302;11.914;2023-03-23T02:47:22;2.03;;;1.73;;
29414;SDS011;20303;48.302;11.914;2023-03-23T02:57:25;2.63;;;1.65;;
29414;SDS011;20303;48.302;11.914;2023-03-23T03:17:28;2.40;;;1.80;;
29414;SDS011;20303;48.302;11.914;2023-03-23T03:27:31;2.58;;;1.70;;
29414;SDS011;20303;48.302;11.914;2023-03-23T03:37:36;2.25;;;1.58;;
29414;SDS011;20303;48.302;11.914;2023-03-23T03:47:38;2.03;;;1.52;;
29414;SDS011;20303;48.302;11.914;2023-03-23T03:57:39;1.95;;;1.55;;
29414;SDS011;20303;48.302;11.914;2023-03-23T04:07:41;3.35;;;1.73;;
29414;SDS011;20303;48.302;11.914;2023-03-23T04:17:42;1.98;;;1.55;;
29414;SDS011;20303;48.302;11.914;2023-03-23T04:27:43;1.73;;;1.40;;
29414;SDS011;20303;48.302;11.914;2023-03-23T04:37:46;2.30;;;1.60;;
29414;SDS011;20303;48.302;11.914;2023-03-23T04:47:48;2.22;;;1.60;;
29414;SDS011;20303;48.302;11.914;2023-03-23T04:57:57;2.17;;;1.58;;
29414;SDS011;20303;48.302;11.914;2023-03-23T05:08:01;1.30;;;1.20;;
29414;SDS011;20303;48.302;11.914;2023-03-23T05:18:02;2.50;;;1.50;;
29414;SDS011;20303;48.302;11.914;2023-03-23T05:28:03;2.00;;;1.40;;
29414;SDS011;20303;48.302;11.914;2023-03-23T05:38:05;1.67;;;1.33;;
29414;SDS011;20303;48.302;11.914;2023-03-23T05:48:06;2.03;;;1.40;;
29414;SDS011;20303;48.302;11.914;2023-03-23T05:58:07;1.98;;;1.40;;
29414;SDS011;20303;48.302;11.914;2023-03-23T06:08:08;1.90;;;1.50;;
29414;SDS011;20303;48.302;11.914;2023-03-23T06:18:09;2.33;;;1.50;;
29414;SDS011;20303;48.302;11.914;2023-03-23T06:28:12;6.28;;;2.00;;
29414;SDS011;20303;48.302;11.914;2023-03-23T06:38:15;8.82;;;2.00;;
29414;SDS011;20303;48.302;11.914;2023-03-23T06:48:17;6.97;;;1.95;;
29414;SDS011;20303;48.302;11.914;2023-03-23T06:58:18;5.70;;;1.80;;
29414;SDS011;20303;48.302;11.914;2023-03-23T07:08:19;5.45;;;1.95;;
29414;SDS011;20303;48.302;11.914;2023-03-23T07:18:20;5.80;;;1.92;;
29414;SDS011;20303;48.302;11.914;2023-03-23T07:28:22;7.90;;;2.30;;
29414;SDS011;20303;48.302;11.914;2023-03-23T07:38:23;7.22;;;2.40;;
29414;SDS011;20303;48.302;11.914;2023-03-23T07:48:27;5.38;;;1.95;;
29414;SDS011;20303;48.302;11.914;2023-03-23T07:58:28;6.10;;;2.60;;
29414;SDS011;20303;48.302;11.914;2023-03-23T08:08:29;5.97;;;2.33;;
29414;SDS011;20303;48.302;11.914;2023-03-23T08:18:31;4.60;;;2.20;;
29414;SDS011;20303;48.302;11.914;2023-03-23T08:28:35;7.20;;;2.10;;
29414;SDS011;20303;48.302;11.914;2023-03-23T08:38:36;4.82;;;2.10;;
29414;SDS011;20303;48.302;11.914;2023-03-23T08:48:37;4.10;;;2.05;;
29414;SDS011;20303;48.302;11.914;2023-03-23T08:58:39;4.50;;;2.10;;
29414;SDS011;20303;48.302;11.914;2023-03-23T09:08:40;4.00;;;2.00;;
29414;SDS011;20303;48.302;11.914;2023-03-23T09:18:41;3.38;;;2.10;;
29414;SDS011;20303;48.302;11.914;2023-03-23T09:28:42;4.97;;;2.10;;
29414;SDS011;20303;48.302;11.914;2023-03-23T09:38:44;3.47;;;2.00;;
29414;SDS011;20303;48.302;11.914;2023-03-23T09:58:53;3.70;;;1.85;;
29414;SDS011;20303;48.302;11.914;2023-03-23T10:08:57;3.70;;;1.90;;
29414;SDS011;20303;48.302;11.914;2023-03-23T10:29:08;3.20;;;1.83;;
29414;SDS011;20303;48.302;11.914;2023-03-23T10:39:17;3.47;;;1.77;;
29414;SDS011;20303;48.302;11.914;2023-03-23T10:49:23;4.13;;;1.80;;
29414;SDS011;20303;48.302;11.914;2023-03-23T10:59:40;4.32;;;1.95;;
29414;SDS011;20303;48.302;11.914;2023-03-23T11:09:50;2.28;;;1.60;;
29414;SDS011;20303;48.302;11.914;2023-03-23T11:19:53;2.95;;;1.73;;
29414;SDS011;20303;48.302;11.914;2023-03-23T11:29:56;3.58;;;2.00;;
29414;SDS011;20303;48.302;11.914;2023-03-23T11:50:15;2.88;;;1.65;;
29414;SDS011;20303;48.302;11.914;2023-03-23T12:00:20;2.75;;;1.60;;
29414;SDS011;20303;48.302;11.914;2023-03-23T12:20:30;2.40;;;1.63;;
29414;SDS011;20303;48.302;11.914;2023-03-23T12:30:51;3.60;;;1.90;;
29414;SDS011;20303;48.302;11.914;2023-03-23T12:51:40;2.58;;;1.70;;
29414;SDS011;20303;48.302;11.914;2023-03-23T13:02:20;3.55;;;1.67;;
29414;SDS011;20303;48.302;11.914;2023-03-23T13:12:24;4.53;;;1.95;;
29414;SDS011;20303;48.302;11.914;2023-03-23T13:32:48;4.80;;;1.95;;
29414;SDS011;20303;48.302;11.914;2023-03-23T13:42:54;4.68;;;2.20;;
29414;SDS011;20303;48.302;11.914;2023-03-23T13:53:12;4.35;;;2.13;;
29414;SDS011;20303;48.302;11.914;2023-03-23T14:03:17;4.28;;;2.25;;
29414;SDS011;20303;48.302;11.914;2023-03-23T14:13:30;5.80;;;2.10;;
29414;SDS011;20303;48.302;11.914;2023-03-23T14:23:41;4.43;;;2.40;;
29414;SDS011;20303;48.302;11.914;2023-03-23T14:33:42;5.75;;;2.40;;
29414;SDS011;20303;48.302;11.914;2023-03-23T14:43:43;4.13;;;2.45;;
29414;SDS011;20303;48.302;11.914;2023-03-23T14:53:45;4.80;;;2.33;;
29414;SDS011;20303;48.302;11.914;2023-03-23T15:03:52;5.88;;;2.30;;
29414;SDS011;20303;48.302;11.914;2023-03-23T15:13:58;6.28;;;2.60;;
29414;SDS011;20303;48.302;11.914;2023-03-23T15:24:18;7.25;;;2.80;;
29414;SDS011;20303;48.302;11.914;2023-03-23T15:34:40;4.68;;;2.30;;
29414;SDS011;20303;48.302;11.914;2023-03-23T15:44:42;4.18;;;2.30;;
29414;SDS011;20303;48.302;11.914;2023-03-23T15:54:47;5.55;;;2.60;;
29414;SDS011;20303;48.302;11.914;2023-03-23T16:04:49;5.60;;;2.42;;
29414;SDS011;20303;48.302;11.914;2023-03-23T16:14:50;14.40;;;3.45;;
29414;SDS011;20303;48.302;11.914;2023-03-23T16:24:52;7.13;;;2.70;;
29414;SDS011;20303;48.302;11.914;2023-03-23T16:34:53;7.15;;;2.60;;
29414;SDS011;20303;48.302;11.914;2023-03-23T16:44:54;8.60;;;3.00;;
29414;SDS011;20303;48.302;11.914;2023-03-23T16:54:55;12.38;;;3.38;;
29414;SDS011;20303;48.302;11.914;2023-03-23T17:04:56;10.40;;;3.38;;
29414;SDS011;20303;48.302;11.914;2023-03-23T17:14:57;14.07;;;3.95;;
29414;SDS011;20303;48.302;11.914;2023-03-23T17:24:58;11.63;;;3.22;;
29414;SDS011;20303;48.302;11.914;2023-03-23T17:35:01;13.50;;;3.25;;
29414;SDS011;20303;48.302;11.914;2023-03-23T17:45:04;8.77;;;3.30;;
29414;SDS011;20303;48.302;11.914;2023-03-23T17:55:06;13.85;;;3.60;;
29414;SDS011;20303;48.302;11.914;2023-03-23T18:05:07;8.93;;;3.13;;
29414;SDS011;20303;48.302;11.914;2023-03-23T18:15:09;9.68;;;3.20;;
29414;SDS011;20303;48.302;11.914;2023-03-23T18:25:11;9.40;;;3.30;;
29414;SDS011;20303;48.302;11.914;2023-03-23T18:35:12;11.32;;;3.60;;
29414;SDS011;20303;48.302;11.914;2023-03-23T18:45:13;7.82;;;2.88;;
29414;SDS011;20303;48.302;11.914;2023-03-23T18:55:14;10.57;;;3.40;;
29414;SDS011;20303;48.302;11.914;2023-03-23T19:05:15;7.65;;;3.22;;
29414;SDS011;20303;48.302;11.914;2023-03-23T19:15:16;7.63;;;3.00;;
29414;SDS011;20303;48.302;11.914;2023-03-23T19:25:17;7.95;;;3.30;;
29414;SDS011;20303;48.302;11.914;2023-03-23T19:35:18;9.43;;;3.20;;
29414;SDS011;20303;48.302;11.914;2023-03-23T19:45:20;7.72;;;3.10;;
29414;SDS011;20303;48.302;11.914;2023-03-23T19:55:21;5.70;;;2.72;;
29414;SDS011;20303;48.302;11.914;2023-03-23T20:05:22;6.72;;;2.90;;
29414;SDS011;20303;48.302;11.914;2023-03-23T20:15:23;5.85;;;2.85;;
29414;SDS011;20303;48.302;11.914;2023-03-23T20:25:24;6.55;;;3.00;;
29414;SDS011;20303;48.302;11.914;2023-03-23T20:35:26;6.53;;;2.80;;
29414;SDS011;20303;48.302;11.914;2023-03-23T20:45:28;5.78;;;2.70;;
29414;SDS011;20303;48.302;11.914;2023-03-23T20:55:29;7.35;;;3.00;;
29414;SDS011;20303;48.302;11.914;2023-03-23T21:05:30;5.75;;;2.85;;
29414;SDS011;20303;48.302;11.914;2023-03-23T21:15:31;5.10;;;2.78;;
29414;SDS011;20303;48.302;11.914;2023-03-23T21:25:33;5.35;;;2.53;;
29414;SDS011;20303;48.302;11.914;2023-03-23T21:35:35;5.05;;;2.60;;
29414;SDS011;20303;48.302;11.914;2023-03-23T21:45:36;4.15;;;2.47;;
29414;SDS011;20303;48.302;11.914;2023-03-23T21:55:38;6.35;;;2.63;;
29414;SDS011;20303;48.302;11.914;2023-03-23T22:05:42;7.05;;;2.80;;
29414;SDS011;20303;48.302;11.914;2023-03-23T22:15:45;6.95;;;2.40;;
29414;SDS011;20303;48.302;11.914;2023-03-23T22:25:46;4.63;;;2.40;;
29414;SDS011;20303;48.302;11.914;2023-03-23T22:35:47;4.53;;;2.42;;
29414;SDS011;20303;48.302;11.914;2023-03-23T22:45:50;5.38;;;2.47;;
29414;SDS011;20303;48.302;11.914;2023-03-23T22:55:52;4.53;;;2.25;;
29414;SDS011;20303;48.302;11.914;2023-03-23T23:05:55;5.00;;;2.55;;
29414;SDS011;20303;48.302;11.914;2023-03-23T23:15:58;4.47;;;2.38;;
29414;SDS011;20303;48.302;11.914;2023-03-23T23:26:00;4.47;;;2.40;;
29414;SDS011;20303;48.302;11.914;2023-03-23T23:36:02;3.40;;;2.40;;
29414;SDS011;20303;48.302;11.914;2023-03-23T23:46:03;3.75;;;2.20;;
29414;SDS011;20303;48.302;11.914;2023-03-23T23:56:04;3.58;;;2.08;;
